createdAt,value
2023-01-27T00:01:00.629Z,2.8
2023-01-27T00:06:50.924Z,2.8
2023-01-27T00:12:41.545Z,2.8
2023-01-27T00:18:32.261Z,2.9
2023-01-27T00:24:23.216Z,2.9
2023-01-27T00:30:15.350Z,3
2023-01-27T00:36:07.936Z,3
2023-01-27T00:43:10.275Z,3
2023-01-27T00:49:00.587Z,3.1
2023-01-27T00:54:53.248Z,3
2023-01-27T01:00:44.479Z,3.1
2023-01-27T01:06:35.993Z,3.1
2023-01-27T01:12:28.928Z,3.1
2023-01-27T01:18:21.037Z,3.1
2023-01-27T01:24:14.308Z,3.1
2023-01-27T01:30:07.503Z,3.1
2023-01-27T01:36:02.319Z,3.1
2023-01-27T01:41:54.343Z,3.1
2023-01-27T01:47:46.281Z,3.1
2023-01-27T01:53:39.043Z,3.2
2023-01-27T01:59:30.180Z,3.1
2023-01-27T02:05:23.197Z,3.1
2023-01-27T02:11:13.415Z,3.1
2023-01-27T02:17:05.135Z,3.1
2023-01-27T02:22:56.352Z,3.1
2023-01-27T02:28:47.288Z,3.1
2023-01-27T02:34:39.792Z,3.1
2023-01-27T02:40:32.806Z,3
2023-01-27T02:46:25.827Z,3.1
2023-01-27T02:52:18.158Z,3
2023-01-27T02:58:08.942Z,3.1
2023-01-27T03:04:01.603Z,3
2023-01-27T03:09:53.797Z,3
2023-01-27T03:15:45.439Z,2.9
2023-01-27T03:21:44.738Z,3
2023-01-27T03:27:38.767Z,2.9
2023-01-27T03:33:30.912Z,2.9
2023-01-27T03:39:23.482Z,2.9
2023-01-27T03:45:18.845Z,2.9
2023-01-27T03:51:11.771Z,2.8
2023-01-27T03:57:07.624Z,2.9
2023-01-27T04:03:01.541Z,2.9
2023-01-27T04:08:54.778Z,2.9
2023-01-27T04:14:47.120Z,2.8
2023-01-27T04:20:37.670Z,2.9
2023-01-27T04:26:33.069Z,2.9
2023-01-27T04:32:25.058Z,2.9
2023-01-27T04:38:16.780Z,2.9
2023-01-27T04:44:08.272Z,2.9
2023-01-27T04:50:03.004Z,2.9
2023-01-27T04:55:55.243Z,2.8
2023-01-27T05:01:47.618Z,2.9
2023-01-27T05:07:44.936Z,2.9
2023-01-27T05:13:38.674Z,2.8
2023-01-27T05:19:30.506Z,2.9
2023-01-27T05:25:25.762Z,2.9
2023-01-27T05:31:30.468Z,3
2023-01-27T05:37:23.887Z,2.9
2023-01-27T05:43:15.846Z,2.8
2023-01-27T05:49:10.457Z,2.9
2023-01-27T05:55:03.436Z,2.9
2023-01-27T06:00:57.034Z,2.9
2023-01-27T06:06:48.831Z,3
2023-01-27T06:12:41.012Z,3
2023-01-27T06:18:33.324Z,3
2023-01-27T06:24:22.518Z,3
2023-01-27T06:30:13.661Z,3
2023-01-27T06:36:03.100Z,3.1
2023-01-27T06:41:55.687Z,3.1
2023-01-27T06:47:46.045Z,3.2
2023-01-27T06:53:36.806Z,3.1
2023-01-27T06:59:27.177Z,3.2
2023-01-27T07:05:19.648Z,3.2
2023-01-27T07:11:10.216Z,3.1
2023-01-27T07:17:00.978Z,3.1
2023-01-27T07:22:51.375Z,3.1
2023-01-27T07:28:44.067Z,3.2
2023-01-27T07:34:36.777Z,3.2
2023-01-27T07:40:26.569Z,3.2
2023-01-27T07:46:17.185Z,3.1
2023-01-27T07:52:10.137Z,3.2
2023-01-27T07:58:02.581Z,3.1
2023-01-27T08:03:54.120Z,3.2
2023-01-27T08:09:44.254Z,3.2
2023-01-27T08:16:43.115Z,3.3
2023-01-27T08:29:36.181Z,3.5
2023-01-27T08:36:34.821Z,3.3
2023-01-27T08:42:22.501Z,3.3
2023-01-27T08:53:00.948Z,3.5
2023-01-27T08:58:46.601Z,3.4
2023-01-27T09:04:35.927Z,3.5
2023-01-27T09:47:59.481Z,4.1
2023-01-27T09:53:44.296Z,4
2023-01-27T09:59:35.246Z,4.1
2023-01-27T10:05:30.473Z,4.1
2023-01-27T10:11:19.778Z,4.1
2023-01-27T10:17:09.419Z,4.2
2023-01-27T10:23:00.424Z,4.2
2023-01-27T10:28:51.128Z,4.3
2023-01-27T10:34:41.992Z,4.4
2023-01-27T10:40:30.456Z,4.4
2023-01-27T10:46:20.317Z,4.3
2023-01-27T10:52:11.932Z,4.4
2023-01-27T10:58:02.871Z,4.5
2023-01-27T11:03:54.832Z,4.6
2023-01-27T11:09:44.053Z,4.6
2023-01-27T11:15:32.821Z,4.6
2023-01-27T11:21:24.011Z,4.7
2023-01-27T11:27:15.135Z,4.6
2023-01-27T11:34:15.431Z,4.7
2023-01-27T11:40:04.705Z,4.8
2023-01-27T11:45:56.358Z,4.9
2023-01-27T11:51:47.265Z,4.9
2023-01-27T11:57:38.880Z,5
2023-01-27T12:03:28.622Z,5
2023-01-27T12:09:19.872Z,5.1
2023-01-27T12:15:11.063Z,5.2
2023-01-27T12:21:01.603Z,5.3
2023-01-27T12:26:51.882Z,5.4
2023-01-27T12:32:44.765Z,5.4
2023-01-27T12:38:35.443Z,5.5
2023-01-27T12:44:24.811Z,5.4
2023-01-27T12:50:16.448Z,5.5
2023-01-27T12:56:07.816Z,5.5
2023-01-27T13:01:59.331Z,5.5
2023-01-27T13:07:49.823Z,5.7
2023-01-27T13:13:40.738Z,5.8
2023-01-27T13:19:31.719Z,5.7
2023-01-27T13:25:22.105Z,5.6
2023-01-27T13:31:14.607Z,5.6
2023-01-27T13:37:07.503Z,5.8
2023-01-27T13:42:57.836Z,5.8
2023-01-27T13:48:49.364Z,5.8
2023-01-27T13:54:39.950Z,5.8
2023-01-27T14:00:33.103Z,5.7
2023-01-27T14:06:23.126Z,5.7
2023-01-27T14:12:14.497Z,5.7
2023-01-27T14:18:05.261Z,5.7
2023-01-27T14:23:57.352Z,5.6
2023-01-27T14:29:49.008Z,5.6
2023-01-27T14:35:39.426Z,5.5
2023-01-27T14:41:31.645Z,5.6
2023-01-27T14:47:23.014Z,5.5
2023-01-27T14:53:12.878Z,5.5
2023-01-27T14:59:03.658Z,5.4
2023-01-27T15:04:54.843Z,5.4
2023-01-27T15:10:48.326Z,5.3
2023-01-27T15:16:38.181Z,5.3
2023-01-27T15:22:28.482Z,5.3
2023-01-27T15:28:19.093Z,5.3
2023-01-27T15:34:09.535Z,5.2
2023-01-27T15:40:04.689Z,5.2
2023-01-27T15:45:55.177Z,5.2
2023-01-27T15:51:46.812Z,5.1
2023-01-27T15:57:37.626Z,5.1
2023-01-27T16:03:27.662Z,5.1
2023-01-27T16:09:18.472Z,5.1
2023-01-27T16:15:08.744Z,5.1
2023-01-27T16:21:00.447Z,5.1
2023-01-27T16:26:50.480Z,5
2023-01-27T16:32:41.385Z,5
2023-01-27T16:38:33.529Z,5
2023-01-27T16:44:25.445Z,5
2023-01-27T16:50:17.077Z,5.1
2023-01-27T16:56:05.868Z,4.9
2023-01-27T17:01:55.110Z,4.9
2023-01-27T17:07:45.001Z,4.8
2023-01-27T17:13:34.333Z,4.8
2023-01-27T17:19:29.188Z,4.7
2023-01-27T17:25:20.172Z,4.8
2023-01-27T17:31:09.856Z,4.7
2023-01-27T17:37:02.207Z,4.7
2023-01-27T17:42:52.111Z,4.6
2023-01-27T17:48:42.642Z,4.6
2023-01-27T17:54:33.991Z,4.6
2023-01-27T18:00:21.910Z,4.5
2023-01-27T18:06:12.120Z,4.5
2023-01-27T18:12:02.107Z,4.5
2023-01-27T18:17:55.930Z,4.5
2023-01-27T18:23:46.184Z,4.5
2023-01-27T18:29:36.504Z,4.5
2023-01-27T18:38:53.746Z,4.5
2023-01-27T18:51:40.636Z,4.5
2023-01-27T18:57:29.082Z,4.4
2023-01-27T19:03:18.752Z,4.3
2023-01-27T19:09:09.162Z,4.3
2023-01-27T19:17:16.682Z,4.4
2023-01-27T19:25:24.484Z,4.4
2023-01-27T19:33:30.418Z,4.3
2023-01-27T19:40:27.053Z,4.3
2023-01-27T19:50:56.866Z,4.2
2023-01-27T19:56:46.204Z,4.2
2023-01-27T20:02:35.830Z,4.1
2023-01-27T20:08:25.983Z,4.1
2023-01-27T20:14:15.891Z,4
2023-01-27T20:20:07.368Z,4
2023-01-27T20:25:57.127Z,4
2023-01-27T20:31:53.520Z,3.9
2023-01-27T20:44:46.743Z,4
2023-01-27T20:50:34.207Z,4
2023-01-27T20:56:24.391Z,3.9
2023-01-27T21:02:13.555Z,3.9
2023-01-27T21:08:05.059Z,3.9
2023-01-27T21:15:02.617Z,3.9
2023-01-27T21:20:54.367Z,3.8
2023-01-27T21:26:43.933Z,3.9
2023-01-27T21:32:37.542Z,3.8
2023-01-27T21:38:28.633Z,3.7
2023-01-27T21:44:17.923Z,3.6
2023-01-27T21:50:08.487Z,3.6
2023-01-27T21:56:00.643Z,3.7
2023-01-27T22:01:49.801Z,3.7
2023-01-27T22:07:38.948Z,3.7
2023-01-27T22:13:29.258Z,3.6
2023-01-27T22:19:18.850Z,3.7
2023-01-27T22:25:07.683Z,3.7
2023-01-27T22:31:00.421Z,3.6
2023-01-27T22:36:50.427Z,3.7
2023-01-27T22:42:40.165Z,3.7
2023-01-27T22:48:33.001Z,3.7
2023-01-27T22:54:22.920Z,3.6
2023-01-27T23:00:12.972Z,3.6
2023-01-27T23:06:03.627Z,3.5
2023-01-27T23:11:53.871Z,3.6
2023-01-27T23:17:43.708Z,3.6
2023-01-27T23:23:33.848Z,3.6
2023-01-27T23:29:27.253Z,3.6
2023-01-27T23:35:18.910Z,3.5
2023-01-27T23:41:09.392Z,3.5
2023-01-27T23:46:59.243Z,3.5
2023-01-27T23:52:51.396Z,3.6
2023-01-27T23:58:42.237Z,3.5
